Time;durP1;ratioP1;P1;durP2;ratioP2;P2;SDS_P1;SDS_P2;PMS_P1;PMS_P2;Temp;Humidity;BMP_temperature;BMP_pressure;BME280_temperature;BME280_humidity;BME280_pressure;Samples;Min_cycle;Max_cycle;Signal;HPM_P1;HPM_P2
2023/02/20 00:02:09;;;;;;;10.95;8.02;;;7.90;57.60;;;;;;5005877;28;20036;-90
2023/02/20 00:04:38;;;;;;;12.30;8.82;;;7.90;57.60;;;;;;5001451;28;20042;-86
2023/02/20 00:07:04;;;;;;;12.68;8.48;;;7.90;57.50;;;;;;5000817;28;20049;-88
2023/02/20 00:09:30;;;;;;;12.75;9.10;;;7.90;57.50;;;;;;5016393;28;20046;-93
2023/02/20 00:11:55;;;;;;;13.30;8.48;;;7.80;57.40;;;;;;4997438;28;20064;-94
2023/02/20 00:14:22;;;;;;;13.48;8.68;;;7.80;57.40;;;;;;4998551;28;20048;-93
2023/02/20 00:16:48;;;;;;;10.80;7.97;;;7.80;57.30;;;;;;4997067;28;20053;-93
2023/02/20 00:19:16;;;;;;;12.38;7.93;;;7.80;57.30;;;;;;5012559;28;20088;-83
2023/02/20 00:21:49;;;;;;;12.32;8.10;;;7.80;57.30;;;;;;4997279;28;20034;-92
2023/02/20 00:24:19;;;;;;;10.88;7.95;;;7.80;57.30;;;;;;5011205;28;20121;-88
2023/02/20 00:26:50;;;;;;;11.35;8.32;;;7.80;57.30;;;;;;5010170;28;20026;-89
2023/02/20 00:29:18;;;;;;;11.65;7.82;;;7.80;57.80;;;;;;4997449;28;20085;-90
2023/02/20 00:31:53;;;;;;;10.35;7.03;;;7.80;57.20;;;;;;4995144;28;20457;-84
2023/02/20 00:34:21;;;;;;;11.48;7.57;;;7.80;57.30;;;;;;4996557;28;20528;-87
2023/02/20 00:36:47;;;;;;;11.77;8.20;;;7.80;57.30;;;;;;5011926;28;20148;-85
2023/02/20 00:39:13;;;;;;;12.23;8.20;;;7.80;57.30;;;;;;4995310;28;20037;-82
2023/02/20 00:41:39;;;;;;;12.05;8.38;;;7.80;57.20;;;;;;5013441;28;20045;-88
2023/02/20 00:44:05;;;;;;;12.88;8.18;;;7.80;57.40;;;;;;5016909;28;20022;-86
2023/02/20 00:46:31;;;;;;;11.38;7.45;;;7.80;57.40;;;;;;5016260;28;20507;-81
2023/02/20 00:48:57;;;;;;;11.48;7.60;;;7.80;57.50;;;;;;5015386;28;20049;-90
2023/02/20 00:51:42;;;;;;;13.30;8.30;;;7.80;57.50;;;;;;5000471;28;20038;-92
2023/02/20 00:54:08;;;;;;;11.57;7.90;;;7.80;57.40;;;;;;4999436;28;20030;-87
2023/02/20 00:56:34;;;;;;;10.68;7.75;;;7.80;57.40;;;;;;5014527;28;20057;-88
2023/02/20 00:59:01;;;;;;;11.68;7.93;;;7.80;57.40;;;;;;4999662;28;20049;-86
2023/02/20 01:01:27;;;;;;;12.95;7.30;;;7.80;57.30;;;;;;5001130;28;20034;-82
2023/02/20 01:03:53;;;;;;;12.07;7.72;;;7.80;57.20;;;;;;5000314;28;20128;-87
2023/02/20 01:06:19;;;;;;;12.38;7.70;;;7.80;57.10;;;;;;5014934;28;20129;-87
2023/02/20 01:08:45;;;;;;;11.48;8.13;;;7.80;57.10;;;;;;5000715;28;20030;-87
2023/02/20 01:11:11;;;;;;;10.40;7.45;;;7.80;57.00;;;;;;4999520;28;20202;-83
2023/02/20 01:13:37;;;;;;;12.30;7.70;;;7.80;57.00;;;;;;5013762;28;20157;-90
2023/02/20 01:16:05;;;;;;;11.82;7.40;;;7.80;56.90;;;;;;4981955;28;20465;-85
2023/02/20 01:18:32;;;;;;;10.55;7.22;;;7.70;56.80;;;;;;5015322;28;20133;-87
2023/02/20 01:20:57;;;;;;;11.02;7.35;;;7.70;56.80;;;;;;5013328;28;20034;-87
2023/02/20 01:23:24;;;;;;;11.43;7.35;;;7.70;56.70;;;;;;5014627;28;20036;-88
2023/02/20 01:25:52;;;;;;;14.57;7.93;;;7.70;56.70;;;;;;4997580;28;20505;-85
2023/02/20 01:28:18;;;;;;;11.85;7.78;;;7.70;56.70;;;;;;5013572;28;20046;-88
2023/02/20 01:30:44;;;;;;;11.32;7.90;;;7.70;56.70;;;;;;5001811;28;20053;-88
2023/02/20 01:33:09;;;;;;;10.00;7.00;;;7.70;56.80;;;;;;4997638;28;20041;-86
2023/02/20 01:35:35;;;;;;;10.98;7.60;;;7.70;56.80;;;;;;5012584;28;20041;-88
2023/02/20 01:38:05;;;;;;;10.00;6.78;;;7.70;56.90;;;;;;5014529;28;20395;-88
2023/02/20 01:40:33;;;;;;;9.43;6.53;;;7.70;56.80;;;;;;5013185;28;20034;-86
2023/02/20 01:43:02;;;;;;;11.05;7.00;;;7.70;56.60;;;;;;4996803;28;20034;-86
2023/02/20 01:45:34;;;;;;;10.85;7.40;;;7.70;56.60;;;;;;4997755;28;20521;-86
2023/02/20 01:48:00;;;;;;;12.15;7.43;;;7.70;56.60;;;;;;4997243;28;20042;-87
2023/02/20 01:50:34;;;;;;;10.73;7.32;;;7.70;56.50;;;;;;4998142;28;20095;-88
2023/02/20 01:53:06;;;;;;;12.93;7.50;;;7.70;56.50;;;;;;4993903;28;20042;-87
2023/02/20 01:55:43;;;;;;;12.35;7.38;;;7.70;56.50;;;;;;4997391;28;20141;-87
2023/02/20 01:58:19;;;;;;;10.02;7.20;;;7.60;56.40;;;;;;5012967;28;20093;-81
2023/02/20 02:00:45;;;;;;;10.93;7.35;;;7.70;56.40;;;;;;4997651;28;20040;-91
2023/02/20 02:03:28;;;;;;;11.30;6.78;;;7.70;56.40;;;;;;4998381;28;20133;-88
2023/02/20 02:06:00;;;;;;;10.40;6.68;;;7.60;56.40;;;;;;4998843;28;20042;-89
2023/02/20 02:08:27;;;;;;;10.90;7.03;;;7.70;56.40;;;;;;4997404;28;20464;-90
2023/02/20 02:10:56;;;;;;;10.25;7.50;;;7.70;56.30;;;;;;5013838;28;20042;-87
2023/02/20 02:13:22;;;;;;;9.73;7.03;;;7.60;56.20;;;;;;5013025;28;20042;-90
2023/02/20 02:16:32;;;;;;;10.70;7.20;;;7.60;56.20;;;;;;4997254;28;20042;-86
2023/02/20 02:19:32;;;;;;;10.35;6.97;;;7.60;56.10;;;;;;4974492;28;20034;-86
2023/02/20 02:22:17;;;;;;;13.05;7.45;;;7.60;56.30;;;;;;4974932;28;20034;-87
2023/02/20 02:25:01;;;;;;;10.55;7.10;;;7.60;56.40;;;;;;4974259;28;20498;-84
2023/02/20 02:27:52;;;;;;;11.35;7.43;;;7.60;56.50;;;;;;4974918;28;20046;-81
2023/02/20 02:30:32;;;;;;;9.70;6.40;;;7.60;56.40;;;;;;4976475;28;20074;-90
2023/02/20 02:33:06;;;;;;;9.27;6.50;;;7.60;56.40;;;;;;4959361;28;20046;-88
2023/02/20 02:35:52;;;;;;;10.02;6.97;;;7.60;56.30;;;;;;4977421;28;20042;-90
2023/02/20 02:38:30;;;;;;;10.57;7.15;;;7.60;56.20;;;;;;4978481;28;20615;-89
2023/02/20 02:41:08;;;;;;;12.50;6.97;;;7.60;56.20;;;;;;4976799;28;20089;-90
2023/02/20 02:43:52;;;;;;;10.85;7.20;;;7.60;56.20;;;;;;4959275;28;20543;-90
2023/02/20 02:46:33;;;;;;;9.70;7.18;;;7.60;56.10;;;;;;4961216;28;20441;-87
2023/02/20 02:49:05;;;;;;;10.27;6.78;;;7.60;56.20;;;;;;4975023;28;20410;-84
2023/02/20 02:51:36;;;;;;;11.57;7.43;;;7.50;56.10;;;;;;4974258;28;20042;-81
2023/02/20 02:54:10;;;;;;;11.18;7.25;;;7.60;56.10;;;;;;4974045;28;20042;-87
2023/02/20 02:56:44;;;;;;;10.52;7.18;;;7.60;56.20;;;;;;4997856;28;20524;-86
2023/02/20 02:59:18;;;;;;;13.50;7.47;;;7.60;56.10;;;;;;5011576;28;20033;-87
2023/02/20 03:01:55;;;;;;;10.98;7.45;;;7.50;56.00;;;;;;4996616;28;20034;-85
2023/02/20 03:04:29;;;;;;;11.50;7.15;;;7.60;56.00;;;;;;4981613;28;20491;-85
2023/02/20 03:06:59;;;;;;;10.38;7.22;;;7.60;56.00;;;;;;4996451;28;20092;-82
2023/02/20 03:09:37;;;;;;;10.95;7.38;;;7.60;56.00;;;;;;5011900;28;20057;-83
2023/02/20 03:12:04;;;;;;;;;;;7.60;56.00;;;;;;5011389;28;20038;-85
2023/02/20 03:17:47;;;;;;;12.30;7.35;;;7.60;56.10;;;;;;5012977;28;20524;-90
2023/02/20 03:20:17;;;;;;;12.38;7.70;;;7.50;56.10;;;;;;4999085;28;20045;-88
2023/02/20 03:22:52;;;;;;;12.38;7.55;;;7.50;56.10;;;;;;4979136;28;20041;-90
2023/02/20 03:25:24;;;;;;;11.05;7.38;;;7.50;56.00;;;;;;5012617;28;20030;-88
2023/02/20 03:28:02;;;;;;;11.15;7.30;;;7.50;56.00;;;;;;4995295;28;20098;-92
2023/02/20 03:30:40;;;;;;;11.27;7.50;;;7.50;55.90;;;;;;5013349;28;20472;-85
2023/02/20 03:45:05;;;;;;;13.65;8.02;;;7.50;55.90;;;;;;5009942;28;20060;-84
2023/02/20 03:47:35;;;;;;;11.43;7.68;;;7.50;55.80;;;;;;5009043;28;20053;-82
2023/02/20 03:52:54;;;;;;;13.23;8.10;;;7.50;55.80;;;;;;5009683;28;20033;-82
2023/02/20 03:55:23;;;;;;;11.55;7.43;;;7.50;55.70;;;;;;5009163;28;20034;-84
2023/02/20 03:57:54;;;;;;;12.05;7.82;;;7.50;55.60;;;;;;5009520;28;20045;-85
2023/02/20 04:00:26;;;;;;;11.70;8.23;;;7.50;55.70;;;;;;5008573;28;20062;-81
2023/02/20 04:02:55;;;;;;;11.63;7.50;;;7.50;55.70;;;;;;5006751;28;20050;-80
2023/02/20 04:05:28;;;;;;;11.95;8.23;;;7.50;55.70;;;;;;4994705;28;20038;-80
2023/02/20 04:08:00;;;;;;;11.82;8.15;;;7.50;55.90;;;;;;4967994;28;20085;-80
2023/02/20 04:10:31;;;;;;;12.18;7.80;;;7.50;55.80;;;;;;5009029;28;20995;-80
2023/02/20 04:12:59;;;;;;;10.40;7.38;;;7.50;55.70;;;;;;4991963;28;20042;-83
2023/02/20 04:15:27;;;;;;;11.93;7.90;;;7.50;55.60;;;;;;5008875;28;20119;-81
2023/02/20 04:18:15;;;;;;;12.45;8.40;;;7.50;55.50;;;;;;4982164;28;20038;-79
2023/02/20 04:20:41;;;;;;;13.10;8.07;;;7.50;55.60;;;;;;5009712;28;20041;-81
2023/02/20 04:23:23;;;;;;;12.48;8.00;;;7.50;55.50;;;;;;4993262;28;20045;-80
2023/02/20 04:25:56;;;;;;;15.02;8.77;;;7.50;55.40;;;;;;4977349;28;20062;-80
2023/02/20 04:28:23;;;;;;;13.95;8.77;;;7.50;55.90;;;;;;5009430;28;20072;-82
2023/02/20 04:30:55;;;;;;;12.27;8.23;;;7.50;55.30;;;;;;4993892;28;20501;-82
2023/02/20 04:33:21;;;;;;;11.25;8.27;;;7.50;55.30;;;;;;4981198;28;20468;-79
2023/02/20 04:35:49;;;;;;;10.93;8.13;;;7.50;55.30;;;;;;5009388;28;20038;-80
2023/02/20 04:38:17;;;;;;;13.52;8.85;;;7.50;55.30;;;;;;5010439;28;20073;-77
2023/02/20 04:40:42;;;;;;;13.02;8.38;;;7.50;55.30;;;;;;5010518;28;20446;-79
2023/02/20 04:43:08;;;;;;;13.35;8.23;;;7.50;55.20;;;;;;5011047;28;20065;-78
2023/02/20 04:45:34;;;;;;;13.10;8.55;;;7.50;55.30;;;;;;4994544;28;20061;-78
2023/02/20 04:48:00;;;;;;;14.45;9.20;;;7.50;55.30;;;;;;5008109;28;20039;-78
2023/02/20 04:50:32;;;;;;;11.05;7.50;;;7.50;55.40;;;;;;4993824;28;20092;-78
2023/02/20 04:53:00;;;;;;;13.70;8.85;;;7.50;55.50;;;;;;4993744;28;20053;-78
2023/02/20 04:55:27;;;;;;;12.63;8.07;;;7.50;55.40;;;;;;4993043;28;20042;-78
2023/02/20 04:57:57;;;;;;;12.60;8.18;;;7.50;55.40;;;;;;5009368;28;20031;-78
2023/02/20 05:00:25;;;;;;;11.38;7.78;;;7.50;55.30;;;;;;5009005;28;20386;-77
2023/02/20 05:02:52;;;;;;;12.75;8.15;;;7.50;55.30;;;;;;4993421;28;20037;-77
2023/02/20 05:05:24;;;;;;;13.70;8.52;;;7.50;55.20;;;;;;4994971;28;20513;-77
2023/02/20 05:07:57;;;;;;;12.23;8.10;;;7.50;55.20;;;;;;4994247;28;20452;-76
2023/02/20 05:10:26;;;;;;;10.15;7.13;;;7.50;55.10;;;;;;4992860;28;20042;-78
2023/02/20 05:12:53;;;;;;;10.50;7.22;;;7.50;55.10;;;;;;5008632;28;20065;-81
2023/02/20 05:15:19;;;;;;;11.00;7.18;;;7.50;55.00;;;;;;4994773;28;20035;-82
2023/02/20 05:17:46;;;;;;;11.52;7.75;;;7.50;55.00;;;;;;4992965;28;20033;-82
2023/02/20 05:20:13;;;;;;;11.73;7.53;;;7.50;55.00;;;;;;5009836;28;20269;-82
2023/02/20 05:22:39;;;;;;;10.35;7.18;;;7.50;55.00;;;;;;4993441;28;20416;-82
2023/02/20 05:25:05;;;;;;;10.82;7.32;;;7.50;55.00;;;;;;5009729;28;20465;-83
2023/02/20 05:27:31;;;;;;;10.75;7.65;;;7.50;55.00;;;;;;5009264;28;20042;-81
2023/02/20 05:29:59;;;;;;;11.25;7.70;;;7.50;55.00;;;;;;4999486;28;20048;-82
2023/02/20 05:32:28;;;;;;;10.30;7.20;;;7.50;55.50;;;;;;4998124;28;20033;-81
2023/02/20 05:34:54;;;;;;;11.43;7.40;;;7.50;55.00;;;;;;4999682;28;20053;-80
2023/02/20 05:37:21;;;;;;;11.82;7.85;;;7.50;55.00;;;;;;4998553;28;20045;-80
2023/02/20 05:39:48;;;;;;;10.85;6.97;;;7.50;55.00;;;;;;5001239;28;20543;-81
2023/02/20 05:42:15;;;;;;;11.23;7.00;;;7.50;55.10;;;;;;4996561;28;20057;-82
2023/02/20 05:44:41;;;;;;;9.95;6.85;;;7.50;55.00;;;;;;4998129;28;20038;-81
2023/02/20 05:47:07;;;;;;;10.43;7.43;;;7.50;55.10;;;;;;4996549;28;20037;-81
2023/02/20 05:49:34;;;;;;;10.98;7.57;;;7.50;55.00;;;;;;4997478;28;20061;-81
2023/02/20 05:52:01;;;;;;;10.55;7.47;;;7.60;55.10;;;;;;5012833;28;20108;-81
2023/02/20 05:54:28;;;;;;;10.93;7.43;;;7.60;55.20;;;;;;5012879;28;20820;-79
2023/02/20 05:56:54;;;;;;;11.73;7.78;;;7.50;55.20;;;;;;5003506;28;20030;-82
2023/02/20 05:59:22;;;;;;;12.68;8.18;;;7.60;55.30;;;;;;5011859;28;20033;-82
2023/02/20 06:01:54;;;;;;;13.52;7.25;;;7.60;55.30;;;;;;4996721;28;21583;-80
2023/02/20 06:04:20;;;;;;;11.23;7.60;;;7.60;55.40;;;;;;4999834;28;20038;-81
2023/02/20 06:06:46;;;;;;;11.55;7.10;;;7.60;55.40;;;;;;4996903;28;20040;-81
2023/02/20 06:09:15;;;;;;;9.82;6.78;;;7.60;55.40;;;;;;5014436;28;20046;-81
2023/02/20 06:11:46;;;;;;;12.35;7.65;;;7.60;55.40;;;;;;4995081;28;20058;-80
2023/02/20 06:14:14;;;;;;;11.98;7.82;;;7.60;55.40;;;;;;5011914;28;20046;-81
2023/02/20 06:16:40;;;;;;;9.85;7.30;;;7.60;55.30;;;;;;4996417;28;20489;-83
2023/02/20 06:19:06;;;;;;;10.85;7.70;;;7.60;55.30;;;;;;4997607;28;20026;-84
2023/02/20 06:21:34;;;;;;;12.25;8.07;;;7.60;55.30;;;;;;4996197;28;20038;-83
2023/02/20 06:24:01;;;;;;;11.18;7.47;;;7.60;55.30;;;;;;4996291;28;20042;-85
2023/02/20 06:26:27;;;;;;;10.90;7.60;;;7.60;55.50;;;;;;4996153;28;20539;-84
2023/02/20 06:28:53;;;;;;;11.88;7.70;;;7.60;55.40;;;;;;4995669;28;20037;-85
2023/02/20 06:31:27;;;;;;;12.45;8.25;;;7.60;55.50;;;;;;4994713;28;20125;-83
2023/02/20 06:33:53;;;;;;;11.18;7.20;;;7.60;55.50;;;;;;4996208;28;20381;-82
2023/02/20 06:36:23;;;;;;;13.00;7.82;;;7.60;55.50;;;;;;5010352;28;20045;-83
2023/02/20 06:38:49;;;;;;;11.43;7.57;;;7.70;55.70;;;;;;4998167;28;20038;-78
2023/02/20 06:41:15;;;;;;;12.45;7.57;;;7.60;55.50;;;;;;4999879;28;20104;-78
2023/02/20 06:43:41;;;;;;;12.60;8.13;;;7.70;55.40;;;;;;4996494;28;20121;-79
2023/02/20 06:46:07;;;;;;;11.10;6.72;;;7.70;55.40;;;;;;4997568;28;20060;-78
2023/02/20 06:48:33;;;;;;;10.90;7.53;;;7.70;55.40;;;;;;4995869;28;20038;-78
2023/02/20 06:50:59;;;;;;;10.35;7.53;;;7.70;55.90;;;;;;4995886;28;20030;-78
2023/02/20 06:53:25;;;;;;;10.60;6.95;;;7.70;55.20;;;;;;4997676;28;20030;-77
2023/02/20 06:55:50;;;;;;;10.27;7.45;;;7.70;55.30;;;;;;4996423;28;20065;-81
2023/02/20 06:58:16;;;;;;;10.30;7.30;;;7.80;55.30;;;;;;4997014;28;20045;-79
2023/02/20 07:00:42;;;;;;;11.48;7.03;;;7.80;55.30;;;;;;4997049;28;20034;-81
2023/02/20 07:03:08;;;;;;;9.98;6.75;;;7.80;55.20;;;;;;4996660;28;20042;-82
2023/02/20 07:05:34;;;;;;;11.82;7.47;;;7.80;55.20;;;;;;4997550;28;20096;-78
2023/02/20 07:08:00;;;;;;;15.30;7.55;;;7.80;55.10;;;;;;4997537;28;20025;-81
2023/02/20 07:10:26;;;;;;;11.88;7.50;;;7.80;55.00;;;;;;5011143;28;20528;-78
2023/02/20 07:12:52;;;;;;;11.15;7.57;;;7.80;55.00;;;;;;4995360;28;20061;-77
2023/02/20 07:15:18;;;;;;;9.95;6.90;;;7.80;54.90;;;;;;4996988;28;20497;-79
2023/02/20 07:17:44;;;;;;;10.48;6.93;;;7.90;54.90;;;;;;4994775;28;20047;-76
2023/02/20 07:20:10;;;;;;;12.85;7.78;;;7.90;55.10;;;;;;4996545;28;20031;-77
2023/02/20 07:22:36;;;;;;;11.07;7.13;;;7.90;55.50;;;;;;4996026;28;20034;-75
2023/02/20 07:25:02;;;;;;;11.70;7.20;;;7.90;55.90;;;;;;4997068;28;20387;-77
2023/02/20 07:27:27;;;;;;;12.82;8.02;;;8.00;56.30;;;;;;4994334;28;20049;-75
2023/02/20 07:29:53;;;;;;;11.65;7.65;;;8.00;56.30;;;;;;4995814;28;20061;-83
2023/02/20 07:32:22;;;;;;;9.68;7.05;;;8.00;56.30;;;;;;4996281;28;20040;-82
2023/02/20 07:34:49;;;;;;;13.07;7.82;;;8.00;56.20;;;;;;4996083;28;20053;-79
2023/02/20 07:37:15;;;;;;;11.68;7.53;;;8.00;56.00;;;;;;4995709;28;20034;-79
2023/02/20 07:39:41;;;;;;;12.48;7.53;;;8.00;55.90;;;;;;4996998;28;20141;-77
2023/02/20 07:42:07;;;;;;;12.13;7.40;;;8.10;55.90;;;;;;4994020;28;20556;-76
2023/02/20 07:44:53;;;;;;;12.32;7.05;;;8.10;55.60;;;;;;4992719;28;20085;-79
2023/02/20 07:47:19;;;;;;;11.00;7.25;;;8.00;55.30;;;;;;4977847;28;20053;-80
2023/02/20 07:49:45;;;;;;;14.05;8.10;;;8.10;55.10;;;;;;4976688;28;20501;-81
2023/02/20 07:52:11;;;;;;;12.35;7.53;;;8.10;54.90;;;;;;4991206;28;20034;-80
2023/02/20 07:54:37;;;;;;;13.30;7.80;;;8.10;54.80;;;;;;4992639;28;20041;-79
2023/02/20 07:57:03;;;;;;;12.85;7.88;;;8.10;54.60;;;;;;4993112;28;20575;-81
2023/02/20 07:59:29;;;;;;;13.10;8.18;;;8.10;54.50;;;;;;4975783;28;20038;-76
2023/02/20 08:01:55;;;;;;;13.07;8.10;;;8.20;54.40;;;;;;4976839;28;20116;-77
2023/02/20 08:04:21;;;;;;;11.27;7.72;;;8.20;54.40;;;;;;4991984;28;20042;-78
2023/02/20 08:06:47;;;;;;;10.50;7.43;;;8.20;54.10;;;;;;4963861;28;20035;-81
2023/02/20 08:09:13;;;;;;;11.65;7.75;;;8.20;54.00;;;;;;4993077;28;20033;-78
2023/02/20 08:11:38;;;;;;;10.88;7.55;;;8.20;54.00;;;;;;4992659;28;20209;-81
2023/02/20 08:14:05;;;;;;;11.32;7.35;;;8.30;53.90;;;;;;4981726;28;20279;-80
2023/02/20 08:16:32;;;;;;;13.40;7.82;;;8.30;53.80;;;;;;4994655;28;20042;-81
2023/02/20 08:18:59;;;;;;;12.40;7.68;;;8.30;53.80;;;;;;4966016;28;20038;-84
2023/02/20 08:21:26;;;;;;;13.07;8.13;;;8.30;53.80;;;;;;4993361;28;20144;-81
2023/02/20 08:23:53;;;;;;;12.70;8.32;;;8.30;53.70;;;;;;5009596;28;20041;-77
2023/02/20 08:26:20;;;;;;;11.13;7.78;;;8.30;53.60;;;;;;4996231;28;20038;-79
2023/02/20 08:28:47;;;;;;;11.52;7.65;;;8.30;53.50;;;;;;5011186;28;20061;-78
2023/02/20 08:31:13;;;;;;;12.52;8.52;;;8.30;53.30;;;;;;4994073;28;20030;-79
2023/02/20 08:33:39;;;;;;;11.98;7.60;;;8.30;53.30;;;;;;4994965;28;20045;-80
2023/02/20 08:36:05;;;;;;;12.63;7.65;;;8.40;53.40;;;;;;5009702;28;20512;-84
2023/02/20 08:38:34;;;;;;;14.23;7.88;;;8.30;53.30;;;;;;4996113;28;20089;-85
2023/02/20 08:41:07;;;;;;;13.35;7.57;;;8.40;53.20;;;;;;5010849;28;20379;-82
2023/02/20 08:43:34;;;;;;;11.75;8.10;;;8.30;53.10;;;;;;4993274;28;20408;-81
2023/02/20 08:46:00;;;;;;;13.63;8.40;;;8.40;53.20;;;;;;4994630;28;20042;-79
2023/02/20 08:48:26;;;;;;;12.25;8.27;;;8.40;53.10;;;;;;4994424;28;20041;-79
2023/02/20 08:50:52;;;;;;;15.75;8.57;;;8.40;53.00;;;;;;4994553;28;20432;-76
2023/02/20 08:53:18;;;;;;;12.00;7.93;;;8.30;53.00;;;;;;4994744;28;20030;-80
2023/02/20 08:55:45;;;;;;;11.13;7.18;;;8.40;53.00;;;;;;4995061;28;20033;-79
2023/02/20 08:58:11;;;;;;;11.00;7.35;;;8.40;53.00;;;;;;5009197;28;20545;-80
2023/02/20 09:00:37;;;;;;;13.27;7.65;;;8.40;52.90;;;;;;5009399;28;20421;-80
2023/02/20 09:03:06;;;;;;;11.40;7.82;;;8.40;52.90;;;;;;4996772;28;20038;-79
2023/02/20 09:05:33;;;;;;;11.82;7.40;;;8.40;52.90;;;;;;5011794;28;20050;-80
2023/02/20 09:08:00;;;;;;;14.02;7.68;;;8.40;52.80;;;;;;5000236;28;20093;-81
2023/02/20 09:10:26;;;;;;;12.32;7.45;;;8.40;52.80;;;;;;4997744;28;20045;-83
2023/02/20 09:12:52;;;;;;;9.77;7.47;;;8.40;52.70;;;;;;4998401;28;21200;-77
2023/02/20 09:15:18;;;;;;;16.65;9.80;;;8.50;52.80;;;;;;4998099;28;20034;-78
2023/02/20 09:17:48;;;;;;;15.73;10.18;;;8.40;52.00;;;;;;4997439;28;20026;-90
2023/02/20 09:20:15;;;;;;;18.00;11.15;;;8.40;51.50;;;;;;4999100;28;20038;-90
2023/02/20 09:22:41;;;;;;;18.20;10.38;;;8.20;47.30;;;;;;4996908;28;20038;-82
2023/02/20 09:25:10;;;;;;;17.02;10.90;;;8.00;46.60;;;;;;4997976;28;20104;-87
2023/02/20 09:27:36;;;;;;;17.95;10.80;;;7.80;44.90;;;;;;4998945;28;20049;-79
2023/02/20 09:30:03;;;;;;;16.90;10.68;;;7.50;44.40;;;;;;5000266;28;20050;-85
2023/02/20 09:32:29;;;;;;;18.85;12.63;;;7.20;44.70;;;;;;4997060;28;20611;-78
2023/02/20 09:34:56;;;;;;;19.65;11.98;;;7.10;45.10;;;;;;5009426;28;20030;-83
2023/02/20 09:37:23;;;;;;;21.42;12.63;;;6.90;44.30;;;;;;5014100;28;20046;-86
2023/02/20 09:39:49;;;;;;;21.90;12.52;;;6.60;44.10;;;;;;5022409;28;21167;-73
2023/02/20 09:42:17;;;;;;;21.77;11.85;;;6.40;44.40;;;;;;5022069;28;20065;-85
2023/02/20 09:44:57;;;;;;;20.02;11.52;;;6.20;45.00;;;;;;4999154;28;20410;-86
2023/02/20 09:47:47;;;;;;;23.67;12.70;;;6.10;45.30;;;;;;4998516;28;20030;-84
2023/02/20 09:50:30;;;;;;;26.20;12.48;;;5.90;46.40;;;;;;4999027;28;20133;-83
2023/02/20 09:53:04;;;;;;;23.73;12.55;;;5.70;47.50;;;;;;5013726;28;20529;-86
2023/02/20 09:55:37;;;;;;;23.23;12.02;;;5.70;48.90;;;;;;4997724;28;20050;-85
2023/02/20 09:58:05;;;;;;;28.90;12.63;;;5.80;50.00;;;;;;4998763;28;20092;-88
2023/02/20 10:00:34;;;;;;;22.45;12.27;;;5.90;50.70;;;;;;5014338;28;20324;-88
2023/02/20 10:03:17;;;;;;;21.90;11.35;;;6.00;51.20;;;;;;5013304;28;20476;-87
2023/02/20 10:05:44;;;;;;;20.15;10.50;;;6.20;51.50;;;;;;4999026;28;20023;-87
2023/02/20 10:08:18;;;;;;;25.63;10.90;;;6.30;51.80;;;;;;4999123;28;20057;-92
2023/02/20 10:10:44;;;;;;;21.60;10.73;;;6.40;51.90;;;;;;5011550;28;20046;-88
2023/02/20 10:13:28;;;;;;;22.70;9.93;;;6.50;52.00;;;;;;4995825;28;20051;-85
2023/02/20 10:16:16;;;;;;;25.83;10.32;;;6.70;52.10;;;;;;4998598;28;20026;-89
2023/02/20 10:19:00;;;;;;;21.77;10.52;;;6.80;52.20;;;;;;5013617;28;20132;-86
2023/02/20 10:22:04;;;;;;;21.60;10.50;;;6.90;52.30;;;;;;4998267;28;20044;-89
2023/02/20 10:24:47;;;;;;;17.98;9.90;;;7.00;52.30;;;;;;4998233;28;20128;-89
2023/02/20 10:27:27;;;;;;;19.42;10.02;;;7.10;52.30;;;;;;4996109;28;20142;-82
2023/02/20 10:29:54;;;;;;;21.48;10.10;;;7.10;52.30;;;;;;4997482;28;20440;-84
2023/02/20 10:32:29;;;;;;;18.65;9.95;;;7.20;52.30;;;;;;4996161;28;20065;-83
2023/02/20 10:35:22;;;;;;;20.17;9.35;;;7.30;52.30;;;;;;4997085;28;20037;-84
2023/02/20 10:37:53;;;;;;;17.70;9.18;;;7.40;52.20;;;;;;4982997;28;20512;-84
2023/02/20 10:40:30;;;;;;;16.33;8.70;;;7.40;52.10;;;;;;5012132;28;20034;-86
2023/02/20 10:43:10;;;;;;;20.25;9.73;;;7.50;52.10;;;;;;5012114;28;20041;-88
2023/02/20 10:45:52;;;;;;;15.93;8.45;;;7.60;52.20;;;;;;4997715;28;20069;-85
2023/02/20 10:48:18;;;;;;;17.75;9.05;;;7.60;52.10;;;;;;4997030;28;20030;-88
2023/02/20 10:50:49;;;;;;;15.30;9.38;;;7.70;52.10;;;;;;4998326;28;20104;-84
2023/02/20 10:53:21;;;;;;;15.95;9.30;;;7.70;52.20;;;;;;5003567;28;20082;-84
2023/02/20 10:56:10;;;;;;;15.85;9.40;;;7.80;52.10;;;;;;5025529;28;20479;-85
2023/02/20 10:58:57;;;;;;;14.85;8.88;;;7.80;52.20;;;;;;5015000;28;20040;-82
2023/02/20 11:01:25;;;;;;;15.43;9.20;;;7.90;52.10;;;;;;4997565;28;20399;-85
2023/02/20 11:03:59;;;;;;;15.98;9.02;;;7.90;51.90;;;;;;5001006;28;20038;-86
2023/02/20 11:06:34;;;;;;;14.30;8.75;;;7.90;51.80;;;;;;4994572;28;20036;-85
2023/02/20 11:09:00;;;;;;;;;;;8.00;51.80;;;;;;5018121;28;20540;-84
2023/02/20 11:11:29;;;;;;;15.15;8.82;;;8.00;51.70;;;;;;5010798;28;19944;-87
2023/02/20 11:13:58;;;;;;;16.05;9.52;;;8.00;51.50;;;;;;5016462;28;20121;-84
2023/02/20 11:17:06;;;;;;;13.30;8.18;;;8.10;51.60;;;;;;5024973;28;20034;-85
2023/02/20 11:19:47;;;;;;;14.60;8.50;;;8.10;51.60;;;;;;4981773;28;20052;-81
2023/02/20 11:22:14;;;;;;;14.88;8.25;;;8.10;51.40;;;;;;4987232;28;20041;-82
2023/02/20 11:24:42;;;;;;;15.05;7.68;;;8.10;51.30;;;;;;4999224;28;20123;-83
2023/02/20 11:27:21;;;;;;;12.43;8.25;;;8.20;51.30;;;;;;5007917;28;20034;-84
2023/02/20 11:29:53;;;;;;;12.85;8.35;;;8.20;51.10;;;;;;5000489;28;20129;-83
2023/02/20 11:32:27;;;;;;;14.85;8.32;;;8.20;51.50;;;;;;5010037;28;20049;-82
2023/02/20 11:35:17;;;;;;;12.95;8.15;;;8.30;50.90;;;;;;5014070;28;20599;-84
2023/02/20 11:38:04;;;;;;;14.35;8.85;;;8.30;50.90;;;;;;5009983;28;20038;-82
2023/02/20 11:40:31;;;;;;;14.23;8.73;;;8.30;50.80;;;;;;4988919;28;20149;-84
2023/02/20 11:43:13;;;;;;;15.60;8.60;;;8.30;50.90;;;;;;5010460;28;20506;-83
2023/02/20 11:45:39;;;;;;;13.95;8.45;;;8.40;51.00;;;;;;4995887;28;20490;-82
2023/02/20 11:48:13;;;;;;;13.05;8.52;;;8.40;51.00;;;;;;4995082;28;20121;-81
2023/02/20 11:50:47;;;;;;;12.68;7.88;;;8.40;51.00;;;;;;4993487;28;20136;-84
2023/02/20 11:53:31;;;;;;;13.93;8.73;;;8.40;51.00;;;;;;5010931;28;20034;-80
2023/02/20 11:56:09;;;;;;;13.63;8.05;;;8.40;51.10;;;;;;4995531;28;20046;-83
2023/02/20 11:58:36;;;;;;;12.10;8.60;;;8.50;51.00;;;;;;4994619;28;20390;-82
2023/02/20 12:01:02;;;;;;;12.90;8.60;;;8.50;51.00;;;;;;4994867;28;20513;-82
2023/02/20 12:03:31;;;;;;;21.98;8.85;;;8.50;51.00;;;;;;4995875;28;20100;-79
2023/02/20 12:05:59;;;;;;;13.02;8.00;;;8.50;50.90;;;;;;4995423;28;20037;-79
2023/02/20 12:08:34;;;;;;;15.55;8.35;;;8.60;50.80;;;;;;4993610;28;20038;-85
2023/02/20 12:11:16;;;;;;;13.60;8.25;;;8.60;50.80;;;;;;4997120;28;20585;-86
2023/02/20 12:13:51;;;;;;;13.00;8.75;;;8.60;50.80;;;;;;4994586;28;20101;-85
2023/02/20 12:16:36;;;;;;;14.35;8.60;;;8.60;50.80;;;;;;4996117;28;20035;-85
2023/02/20 12:19:35;;;;;;;14.18;8.45;;;8.60;50.80;;;;;;4995955;28;20102;-86
2023/02/20 12:22:16;;;;;;;15.80;9.05;;;8.60;50.90;;;;;;4995695;28;20045;-86
2023/02/20 12:25:03;;;;;;;19.83;9.00;;;8.60;51.00;;;;;;5009913;28;20046;-85
2023/02/20 12:27:51;;;;;;;13.52;8.82;;;8.60;50.90;;;;;;5011439;28;20043;-82
2023/02/20 12:30:38;;;;;;;12.68;8.35;;;8.60;51.10;;;;;;4995871;28;20041;-81
2023/02/20 12:33:32;;;;;;;12.85;8.77;;;8.60;51.20;;;;;;5010150;28;20038;-85
2023/02/20 12:36:30;;;;;;;15.43;9.00;;;8.60;51.30;;;;;;4994649;28;20058;-81
2023/02/20 12:39:06;;;;;;;17.02;10.00;;;8.60;51.40;;;;;;5014374;28;20041;-84
2023/02/20 12:42:11;;;;;;;15.23;8.85;;;8.60;51.30;;;;;;4996727;28;20038;-82
2023/02/20 12:44:47;;;;;;;15.07;9.30;;;8.70;51.40;;;;;;4999072;28;20042;-83
2023/02/20 12:47:35;;;;;;;14.10;9.27;;;8.60;51.30;;;;;;4998319;28;20037;-81
2023/02/20 12:50:29;;;;;;;15.32;9.50;;;8.60;51.30;;;;;;5014468;28;20042;-80
2023/02/20 12:53:18;;;;;;;16.30;9.90;;;8.60;51.30;;;;;;4999427;28;20045;-79
2023/02/20 12:55:50;;;;;;;14.48;8.82;;;8.60;51.30;;;;;;5012851;28;20041;-81
2023/02/20 12:58:22;;;;;;;15.30;9.77;;;8.60;51.30;;;;;;4998673;28;20034;-85
2023/02/20 13:01:01;;;;;;;18.48;9.27;;;8.60;51.20;;;;;;5014481;28;20465;-81
2023/02/20 13:03:30;;;;;;;17.40;10.05;;;8.60;51.20;;;;;;5001948;28;20034;-83
2023/02/20 13:05:56;;;;;;;14.18;8.98;;;8.60;51.40;;;;;;5014644;28;20045;-83
2023/02/20 13:08:53;;;;;;;16.30;9.98;;;8.60;52.00;;;;;;4998435;28;20042;-82
2023/02/20 13:11:24;;;;;;;18.55;10.18;;;8.60;52.70;;;;;;5014826;28;20050;-81
2023/02/20 13:14:13;;;;;;;16.38;9.20;;;8.60;53.00;;;;;;4997954;28;20042;-80
2023/02/20 13:17:32;;;;;;;16.15;9.20;;;8.60;53.20;;;;;;4992702;28;20363;-82
2023/02/20 13:20:24;;;;;;;15.52;9.50;;;8.60;53.20;;;;;;4987627;28;20050;-79
2023/02/20 13:22:59;;;;;;;14.23;9.00;;;8.60;53.10;;;;;;4993350;28;20026;-79
2023/02/20 13:25:41;;;;;;;14.68;9.13;;;8.50;52.90;;;;;;5014301;28;20076;-80
2023/02/20 13:28:25;;;;;;;14.75;8.75;;;8.60;53.00;;;;;;5012532;28;21503;-81
2023/02/20 13:31:47;;;;;;;16.23;9.65;;;8.50;52.80;;;;;;4998585;28;20421;-81